Time;durP1;ratioP1;P1;durP2;ratioP2;P2;SDS_P1;SDS_P2;PMS_P1;PMS_P2;Temp;Humidity;BMP_temperature;BMP_pressure;BME280_temperature;BME280_humidity;BME280_pressure;Samples;Min_cycle;Max_cycle;Signal;HPM_P1;HPM_P2
2022/03/18 00:00:35;;;;;;;;;;;21.60;34.10;;;;;;466677;254;1091;-60
2022/03/18 00:02:36;;;;;;;;;;;21.60;34.20;;;;;;466688;254;1033;-60
2022/03/18 00:04:37;;;;;;;;;;;21.60;34.10;;;;;;466809;254;1286;-60
2022/03/18 00:06:39;;;;;;;;;;;21.60;34.00;;;;;;466616;251;1117;-60
2022/03/18 00:08:40;;;;;;;;;;;21.60;34.10;;;;;;466622;254;1248;-60
2022/03/18 00:10:42;;;;;;;;;;;21.60;34.00;;;;;;466639;254;1295;-60
2022/03/18 00:12:43;;;;;;;;;;;21.70;34.00;;;;;;466669;254;1113;-60
2022/03/18 00:14:44;;;;;;;;;;;21.60;34.10;;;;;;467036;254;2141;-60
2022/03/18 00:16:46;;;;;;;;;;;21.50;34.30;;;;;;466726;254;1003;-60
2022/03/18 00:18:47;;;;;;;;;;;21.60;34.10;;;;;;466704;254;1048;-60
2022/03/18 00:20:48;;;;;;;;;;;21.60;34.10;;;;;;466815;254;1169;-60
2022/03/18 00:22:50;;;;;;;;;;;21.60;34.10;;;;;;466744;254;1052;-60
2022/03/18 00:24:51;;;;;;;;;;;21.70;34.00;;;;;;466722;254;1083;-60
2022/03/18 00:26:52;;;;;;;;;;;21.60;33.90;;;;;;467077;254;1135;-61
2022/03/18 00:28:54;;;;;;;;;;;21.60;34.10;;;;;;466686;254;1082;-60
2022/03/18 00:30:55;;;;;;;;;;;21.50;34.20;;;;;;466608;254;1251;-60
2022/03/18 00:32:56;;;;;;;;;;;21.30;34.50;;;;;;466743;254;1065;-59
2022/03/18 00:34:58;;;;;;;;;;;21.40;34.30;;;;;;466661;254;2193;-60
2022/03/18 00:36:59;;;;;;;;;;;21.60;34.10;;;;;;466684;254;999;-61
2022/03/18 00:39:00;;;;;;;;;;;21.60;33.90;;;;;;466664;254;1074;-60
2022/03/18 00:41:02;;;;;;;;;;;21.60;34.00;;;;;;466679;254;1086;-60
2022/03/18 00:43:04;;;;;;;;;;;21.70;33.80;;;;;;466746;254;1051;-60
2022/03/18 00:45:05;;;;;;;;;;;21.70;33.80;;;;;;466882;254;1414;-60
2022/03/18 00:52:02;;;;;;;;;;;21.60;33.80;;;;;;466908;254;1063;-61
2022/03/18 00:53:48;;;;;;;;;;;21.70;33.70;;;;;;466663;256;1199;-60
2022/03/18 00:55:49;;;;;;;;;;;21.60;33.80;;;;;;466673;254;2189;-60
2022/03/18 00:57:51;;;;;;;;;;;21.70;33.60;;;;;;466704;254;1053;-60
2022/03/18 00:59:52;;;;;;;;;;;21.70;33.70;;;;;;466709;254;1049;-60
2022/03/18 01:01:54;;;;;;;;;;;21.70;33.50;;;;;;466813;254;1105;-60
2022/03/18 01:03:55;;;;;;;;;;;21.70;33.60;;;;;;466802;254;1055;-60
2022/03/18 01:05:56;;;;;;;;;;;21.80;33.60;;;;;;466829;254;1135;-60
2022/03/18 01:07:58;;;;;;;;;;;21.70;33.60;;;;;;466719;254;1047;-60
2022/03/18 01:09:59;;;;;;;;;;;21.70;33.60;;;;;;467165;254;1081;-60
2022/03/18 01:12:03;;;;;;;;;;;21.60;33.70;;;;;;466695;254;1294;-60
2022/03/18 01:14:02;;;;;;;;;;;21.60;33.80;;;;;;466752;254;1456;-60
2022/03/18 01:16:03;;;;;;;;;;;21.60;33.70;;;;;;466854;254;2138;-60
2022/03/18 01:18:04;;;;;;;;;;;21.70;33.60;;;;;;466735;254;1039;-60
2022/03/18 01:20:06;;;;;;;;;;;21.70;33.60;;;;;;466702;254;1355;-60
2022/03/18 01:22:09;;;;;;;;;;;21.70;33.50;;;;;;466680;254;996;-60
2022/03/18 01:24:10;;;;;;;;;;;21.70;33.60;;;;;;466684;254;1425;-61
2022/03/18 01:26:11;;;;;;;;;;;21.70;33.60;;;;;;466687;254;1234;-60
2022/03/18 01:28:12;;;;;;;;;;;21.70;33.50;;;;;;466808;254;946;-59
2022/03/18 01:30:14;;;;;;;;;;;21.60;33.60;;;;;;466669;254;1015;-60
2022/03/18 01:32:15;;;;;;;;;;;21.60;33.70;;;;;;466686;254;1074;-60
2022/03/18 01:34:17;;;;;;;;;;;21.40;34.00;;;;;;466869;254;1041;-60
2022/03/18 01:36:18;;;;;;;;;;;21.40;33.90;;;;;;466772;254;2114;-60
2022/03/18 01:38:19;;;;;;;;;;;21.50;33.80;;;;;;466702;254;1093;-60
2022/03/18 01:40:21;;;;;;;;;;;21.50;33.70;;;;;;466676;254;1055;-60
2022/03/18 01:42:22;;;;;;;;;;;21.60;33.70;;;;;;466857;254;1051;-60
2022/03/18 01:44:23;;;;;;;;;;;21.60;33.50;;;;;;466825;254;1301;-60
2022/03/18 01:46:25;;;;;;;;;;;21.60;33.60;;;;;;466706;251;1215;-60
2022/03/18 01:48:26;;;;;;;;;;;21.60;33.70;;;;;;466899;254;1052;-60
2022/03/18 01:50:27;;;;;;;;;;;21.60;33.60;;;;;;466948;254;1092;-60
2022/03/18 01:52:29;;;;;;;;;;;21.40;33.80;;;;;;466748;254;1040;-60
2022/03/18 01:54:47;;;;;;;;;;;21.50;33.60;;;;;;466744;254;989;-60
2022/03/18 01:56:46;;;;;;;;;;;21.60;33.50;;;;;;466765;254;2627;-60
2022/03/18 01:58:48;;;;;;;;;;;21.60;33.50;;;;;;466723;254;2475;-60
2022/03/18 02:00:49;;;;;;;;;;;21.60;33.50;;;;;;466792;254;1055;-59
2022/03/18 02:02:51;;;;;;;;;;;21.50;33.60;;;;;;466663;254;1001;-60
2022/03/18 02:04:52;;;;;;;;;;;21.50;33.70;;;;;;466913;254;1369;-60
2022/03/18 02:06:53;;;;;;;;;;;21.60;33.50;;;;;;466608;254;1236;-60
2022/03/18 02:08:54;;;;;;;;;;;21.50;33.50;;;;;;466618;254;1116;-60
2022/03/18 02:10:56;;;;;;;;;;;21.50;33.60;;;;;;466662;254;1095;-60
2022/03/18 02:12:57;;;;;;;;;;;21.50;33.60;;;;;;466662;254;1074;-60
2022/03/18 02:14:58;;;;;;;;;;;21.50;33.50;;;;;;466699;254;2212;-59
2022/03/18 02:17:00;;;;;;;;;;;21.50;33.60;;;;;;466694;254;1107;-60
2022/03/18 02:19:01;;;;;;;;;;;21.60;33.40;;;;;;466656;254;1066;-59
2022/03/18 02:21:02;;;;;;;;;;;21.60;33.40;;;;;;466642;254;1187;-61
2022/03/18 02:23:04;;;;;;;;;;;21.50;33.50;;;;;;466657;254;1199;-60
2022/03/18 02:25:09;;;;;;;;;;;21.60;33.40;;;;;;466702;254;1068;-60
2022/03/18 02:27:06;;;;;;;;;;;21.60;33.40;;;;;;466790;254;1960;-60
2022/03/18 02:29:08;;;;;;;;;;;21.60;33.50;;;;;;466887;254;1252;-61
2022/03/18 02:31:09;;;;;;;;;;;21.50;33.50;;;;;;466837;254;1007;-60
2022/03/18 02:33:11;;;;;;;;;;;21.40;33.60;;;;;;467131;254;977;-60
2022/03/18 02:35:12;;;;;;;;;;;21.50;33.60;;;;;;466666;254;2208;-59
2022/03/18 02:37:13;;;;;;;;;;;21.40;33.70;;;;;;466761;254;1200;-59
2022/03/18 02:39:15;;;;;;;;;;;21.20;33.90;;;;;;466656;254;1061;-59
2022/03/18 02:41:16;;;;;;;;;;;21.30;33.80;;;;;;466628;254;1054;-60
2022/03/18 02:43:17;;;;;;;;;;;21.40;33.70;;;;;;466930;254;1061;-60
2022/03/18 02:45:19;;;;;;;;;;;21.40;33.60;;;;;;466882;254;1080;-60
2022/03/18 02:47:20;;;;;;;;;;;21.40;33.50;;;;;;466656;254;1130;-60
2022/03/18 02:49:21;;;;;;;;;;;21.40;33.50;;;;;;466638;254;1125;-60
2022/03/18 02:51:23;;;;;;;;;;;21.40;33.60;;;;;;466807;254;1285;-61
2022/03/18 02:53:24;;;;;;;;;;;21.50;33.40;;;;;;466750;254;1098;-60
2022/03/18 02:55:26;;;;;;;;;;;21.50;33.20;;;;;;466638;254;2205;-60
2022/03/18 02:57:27;;;;;;;;;;;21.50;33.30;;;;;;466631;254;1582;-60
2022/03/18 02:59:28;;;;;;;;;;;21.60;33.10;;;;;;466854;254;1057;-60
2022/03/18 03:01:30;;;;;;;;;;;21.60;33.10;;;;;;466669;254;1085;-60
2022/03/18 03:03:31;;;;;;;;;;;21.60;33.00;;;;;;466616;254;1415;-60
2022/03/18 03:08:00;;;;;;;;;;;21.50;33.20;;;;;;466584;256;1193;-59
2022/03/18 03:10:02;;;;;;;;;;;21.50;33.30;;;;;;466652;254;1031;-59
2022/03/18 03:12:03;;;;;;;;;;;21.40;33.30;;;;;;466753;254;1078;-60
2022/03/18 03:14:05;;;;;;;;;;;21.50;33.10;;;;;;466648;254;1069;-60
2022/03/18 03:16:06;;;;;;;;;;;21.40;33.10;;;;;;466819;254;2147;-60
2022/03/18 03:18:07;;;;;;;;;;;21.40;33.20;;;;;;466806;254;1082;-60
2022/03/18 03:20:09;;;;;;;;;;;21.50;33.20;;;;;;466666;254;1047;-59
2022/03/18 03:22:10;;;;;;;;;;;21.50;33.00;;;;;;466852;254;1327;-60
2022/03/18 03:24:11;;;;;;;;;;;21.50;32.90;;;;;;466848;254;1048;-60
2022/03/18 03:26:13;;;;;;;;;;;21.50;33.00;;;;;;466614;254;1090;-60
2022/03/18 03:28:14;;;;;;;;;;;21.50;33.00;;;;;;466697;254;1093;-60
2022/03/18 03:30:15;;;;;;;;;;;21.50;32.90;;;;;;466689;254;1272;-60
2022/03/18 03:32:16;;;;;;;;;;;21.50;33.00;;;;;;466680;254;976;-60
2022/03/18 03:34:20;;;;;;;;;;;21.40;33.10;;;;;;466664;254;1009;-59
2022/03/18 03:36:19;;;;;;;;;;;21.40;33.10;;;;;;466623;254;2197;-60
2022/03/18 03:38:21;;;;;;;;;;;21.50;33.00;;;;;;466640;254;1341;-60
2022/03/18 03:40:24;;;;;;;;;;;21.50;33.00;;;;;;466733;254;1400;-60
2022/03/18 03:42:23;;;;;;;;;;;21.10;33.60;;;;;;466622;254;1351;-60
2022/03/18 03:44:24;;;;;;;;;;;21.20;33.40;;;;;;466720;254;1026;-60
2022/03/18 03:46:26;;;;;;;;;;;21.30;33.20;;;;;;466686;254;1095;-60
2022/03/18 03:48:27;;;;;;;;;;;21.30;33.20;;;;;;466707;254;1105;-60
2022/03/18 03:50:29;;;;;;;;;;;21.50;32.90;;;;;;466717;254;1115;-60
2022/03/18 03:52:30;;;;;;;;;;;21.50;32.80;;;;;;466572;254;1216;-60
2022/03/18 03:54:31;;;;;;;;;;;21.60;32.80;;;;;;466725;254;1057;-60
2022/03/18 03:56:32;;;;;;;;;;;21.60;32.80;;;;;;466631;254;2201;-60
2022/03/18 03:58:34;;;;;;;;;;;21.50;32.90;;;;;;466814;254;1046;-60
2022/03/18 04:00:36;;;;;;;;;;;21.50;32.70;;;;;;466830;254;1858;-60
2022/03/18 04:02:38;;;;;;;;;;;21.60;32.70;;;;;;466701;254;1036;-60
2022/03/18 04:04:39;;;;;;;;;;;21.60;32.50;;;;;;466812;254;995;-60
2022/03/18 04:06:40;;;;;;;;;;;21.60;32.70;;;;;;466826;254;1322;-60
2022/03/18 04:08:42;;;;;;;;;;;21.70;32.40;;;;;;466727;254;1081;-60
2022/03/18 04:10:43;;;;;;;;;;;21.70;32.60;;;;;;466766;254;1055;-60
2022/03/18 04:12:44;;;;;;;;;;;21.60;32.60;;;;;;466792;254;1019;-60
2022/03/18 04:14:46;;;;;;;;;;;21.60;32.80;;;;;;467128;254;1068;-60
2022/03/18 04:16:47;;;;;;;;;;;21.60;32.80;;;;;;467104;254;2134;-60
2022/03/18 04:18:48;;;;;;;;;;;21.60;32.80;;;;;;466768;254;1071;-60
2022/03/18 04:20:50;;;;;;;;;;;21.60;32.90;;;;;;466946;254;1071;-60
2022/03/18 04:22:51;;;;;;;;;;;21.60;32.60;;;;;;466680;254;1179;-60
2022/03/18 04:24:52;;;;;;;;;;;21.60;32.70;;;;;;466684;254;1070;-60
2022/03/18 04:26:54;;;;;;;;;;;21.60;32.70;;;;;;466765;254;987;-60
2022/03/18 04:28:55;;;;;;;;;;;21.60;32.70;;;;;;466704;254;976;-60
2022/03/18 04:30:56;;;;;;;;;;;21.60;32.70;;;;;;466795;254;1135;-60
2022/03/18 04:32:58;;;;;;;;;;;21.60;32.90;;;;;;466669;254;1082;-60
2022/03/18 04:34:59;;;;;;;;;;;21.60;32.80;;;;;;466700;254;1118;-60
2022/03/18 04:37:00;;;;;;;;;;;21.60;32.80;;;;;;466552;254;2200;-60
2022/03/18 04:39:02;;;;;;;;;;;21.60;32.70;;;;;;467100;254;1047;-61
2022/03/18 04:41:03;;;;;;;;;;;21.60;32.70;;;;;;466900;254;1220;-61
2022/03/18 04:43:04;;;;;;;;;;;21.60;32.60;;;;;;466966;254;1100;-60
2022/03/18 04:45:06;;;;;;;;;;;21.50;33.00;;;;;;466720;254;1126;-60
2022/03/18 04:47:07;;;;;;;;;;;21.50;32.90;;;;;;466835;254;1060;-60
2022/03/18 04:49:08;;;;;;;;;;;21.60;32.60;;;;;;466710;254;1152;-60
2022/03/18 04:51:10;;;;;;;;;;;21.60;32.80;;;;;;466886;254;1187;-60
2022/03/18 04:53:11;;;;;;;;;;;21.60;32.60;;;;;;466667;254;1322;-60
2022/03/18 04:55:12;;;;;;;;;;;21.50;32.80;;;;;;466959;254;1163;-60
2022/03/18 04:57:18;;;;;;;;;;;21.50;32.70;;;;;;466750;254;2317;-60
2022/03/18 04:59:19;;;;;;;;;;;21.50;32.70;;;;;;466748;254;1418;-60
2022/03/18 05:01:20;;;;;;;;;;;21.60;32.80;;;;;;466812;254;1231;-60
2022/03/18 05:03:21;;;;;;;;;;;21.60;32.60;;;;;;466532;254;1205;-60
2022/03/18 05:05:23;;;;;;;;;;;21.50;32.70;;;;;;466582;254;1233;-60
2022/03/18 05:07:25;;;;;;;;;;;21.60;32.60;;;;;;466626;254;1325;-60
2022/03/18 05:09:26;;;;;;;;;;;21.60;32.60;;;;;;466644;254;1055;-60
2022/03/18 05:11:27;;;;;;;;;;;21.60;32.50;;;;;;466558;254;1087;-61
2022/03/18 05:13:29;;;;;;;;;;;21.60;32.60;;;;;;466612;254;1429;-60
2022/03/18 05:15:31;;;;;;;;;;;21.50;32.80;;;;;;466636;254;1149;-60
2022/03/18 05:17:31;;;;;;;;;;;21.50;32.70;;;;;;467034;254;2201;-60
2022/03/18 05:19:33;;;;;;;;;;;21.50;32.50;;;;;;466682;254;1066;-61
2022/03/18 05:21:34;;;;;;;;;;;21.60;32.60;;;;;;466610;254;1094;-61
2022/03/18 05:23:35;;;;;;;;;;;21.60;32.60;;;;;;466580;254;1281;-60
2022/03/18 05:25:39;;;;;;;;;;;21.60;32.60;;;;;;466589;254;1057;-60
2022/03/18 05:27:38;;;;;;;;;;;21.60;32.60;;;;;;466547;254;2356;-61
2022/03/18 05:29:39;;;;;;;;;;;21.60;32.60;;;;;;466863;254;1086;-61
2022/03/18 05:31:42;;;;;;;;;;;21.60;32.40;;;;;;466800;254;1088;-60
2022/03/18 05:33:42;;;;;;;;;;;21.60;32.60;;;;;;466611;254;2462;-60
2022/03/18 05:35:43;;;;;;;;;;;21.50;32.70;;;;;;466507;254;1048;-60
2022/03/18 05:37:45;;;;;;;;;;;21.60;32.70;;;;;;466583;254;2204;-60
2022/03/18 05:39:46;;;;;;;;;;;21.50;32.60;;;;;;466630;254;1354;-61
2022/03/18 05:41:48;;;;;;;;;;;21.60;32.70;;;;;;466499;254;1061;-60
2022/03/18 05:43:49;;;;;;;;;;;21.60;32.50;;;;;;466634;254;1057;-60
2022/03/18 05:45:50;;;;;;;;;;;21.60;32.60;;;;;;466645;254;1118;-60
2022/03/18 05:47:51;;;;;;;;;;;21.50;32.70;;;;;;466807;254;1183;-60
2022/03/18 05:49:53;;;;;;;;;;;21.50;32.80;;;;;;466479;254;1214;-61
2022/03/18 05:51:54;;;;;;;;;;;21.40;32.80;;;;;;466767;254;1031;-60
2022/03/18 05:53:55;;;;;;;;;;;21.50;32.70;;;;;;466490;254;1220;-61
2022/03/18 05:58:16;;;;;;;;;;;21.50;32.50;;;;;;466433;255;1091;-60
2022/03/18 06:00:17;;;;;;;;;;;21.50;32.50;;;;;;466737;254;1053;-60
2022/03/18 06:02:19;;;;;;;;;;;21.60;32.50;;;;;;466733;254;1100;-61
2022/03/18 06:04:20;;;;;;;;;;;21.70;32.40;;;;;;466848;254;1066;-60
2022/03/18 06:06:21;;;;;;;;;;;21.60;32.60;;;;;;466535;254;1087;-60
2022/03/18 06:13:01;;;;;;;;;;;21.60;32.50;;;;;;466530;256;1074;-60
2022/03/18 06:15:02;;;;;;;;;;;21.60;32.40;;;;;;466520;254;1050;-60
2022/03/18 06:17:04;;;;;;;;;;;21.70;32.50;;;;;;466740;254;2212;-60
2022/03/18 06:19:05;;;;;;;;;;;21.60;32.60;;;;;;466515;254;1011;-60
2022/03/18 06:21:07;;;;;;;;;;;21.50;32.70;;;;;;466366;254;1050;-60
2022/03/18 06:23:08;;;;;;;;;;;21.60;32.50;;;;;;466342;254;1312;-60
2022/03/18 06:25:09;;;;;;;;;;;21.60;32.50;;;;;;466500;254;1046;-60
2022/03/18 06:27:11;;;;;;;;;;;21.70;32.60;;;;;;466399;254;1515;-60
2022/03/18 06:29:13;;;;;;;;;;;21.70;32.50;;;;;;466393;254;1200;-60
2022/03/18 06:31:14;;;;;;;;;;;21.70;32.50;;;;;;466348;254;1266;-61
2022/03/18 06:33:15;;;;;;;;;;;21.70;32.60;;;;;;466416;254;1066;-60
2022/03/18 06:35:16;;;;;;;;;;;21.60;32.60;;;;;;466298;254;1063;-60
2022/03/18 06:37:18;;;;;;;;;;;21.70;32.60;;;;;;466207;254;2225;-60
2022/03/18 06:39:20;;;;;;;;;;;21.70;32.50;;;;;;466466;254;1188;-60
2022/03/18 06:41:22;;;;;;;;;;;21.70;32.60;;;;;;466398;254;1127;-60
2022/03/18 06:43:22;;;;;;;;;;;21.60;32.70;;;;;;466525;254;1376;-60
2022/03/18 06:45:24;;;;;;;;;;;21.70;32.60;;;;;;466543;254;1042;-60
2022/03/18 06:47:25;;;;;;;;;;;21.70;32.60;;;;;;466342;254;1055;-60
2022/03/18 06:49:26;;;;;;;;;;;21.70;32.60;;;;;;466364;254;2058;-60
2022/03/18 06:51:27;;;;;;;;;;;21.50;32.90;;;;;;466467;254;1069;-61
2022/03/18 06:53:29;;;;;;;;;;;21.50;32.90;;;;;;466353;254;1218;-60
2022/03/18 06:55:30;;;;;;;;;;;21.50;32.80;;;;;;466396;254;1104;-60
2022/03/18 06:57:31;;;;;;;;;;;21.60;32.90;;;;;;466596;254;2134;-60
2022/03/18 06:59:33;;;;;;;;;;;21.50;32.80;;;;;;466443;254;1068;-60
2022/03/18 07:01:35;;;;;;;;;;;21.50;32.80;;;;;;466396;254;1166;-60
2022/03/18 07:03:36;;;;;;;;;;;21.60;32.60;;;;;;466281;254;1114;-61
2022/03/18 07:05:37;;;;;;;;;;;21.80;32.40;;;;;;466356;254;1105;-61
2022/03/18 07:07:40;;;;;;;;;;;21.70;32.40;;;;;;466487;254;1101;-60
2022/03/18 07:09:40;;;;;;;;;;;21.70;32.50;;;;;;466431;254;1359;-60
2022/03/18 07:11:41;;;;;;;;;;;21.70;32.50;;;;;;466328;254;1234;-60
2022/03/18 07:13:43;;;;;;;;;;;21.60;32.70;;;;;;466326;254;1073;-60
2022/03/18 07:15:45;;;;;;;;;;;21.60;32.50;;;;;;466240;254;1047;-60
2022/03/18 07:17:55;;;;;;;;;;;21.70;32.50;;;;;;466192;254;2283;-60
2022/03/18 07:19:56;;;;;;;;;;;21.60;32.50;;;;;;466293;254;1055;-60
2022/03/18 07:21:58;;;;;;;;;;;21.60;32.60;;;;;;466181;254;1154;-60
2022/03/18 07:23:59;;;;;;;;;;;21.60;32.50;;;;;;466149;254;1192;-60
2022/03/18 07:26:00;;;;;;;;;;;21.70;32.40;;;;;;466302;254;1083;-60
2022/03/18 07:28:02;;;;;;;;;;;21.70;32.40;;;;;;466335;254;1082;-60
2022/03/18 07:30:03;;;;;;;;;;;21.70;32.40;;;;;;466234;254;1231;-60
2022/03/18 07:32:04;;;;;;;;;;;21.60;32.40;;;;;;466277;254;1104;-60
2022/03/18 07:34:06;;;;;;;;;;;21.60;32.40;;;;;;466416;254;1102;-60
2022/03/18 07:36:07;;;;;;;;;;;21.60;32.40;;;;;;466250;254;1120;-60
2022/03/18 07:38:09;;;;;;;;;;;21.60;32.40;;;;;;466310;254;2732;-61
2022/03/18 07:40:11;;;;;;;;;;;21.60;32.20;;;;;;466213;254;1994;-61
2022/03/18 07:42:11;;;;;;;;;;;21.50;32.40;;;;;;466433;254;2726;-60
2022/03/18 07:44:12;;;;;;;;;;;21.60;32.30;;;;;;466285;254;1074;-60
2022/03/18 07:46:14;;;;;;;;;;;21.70;32.10;;;;;;466114;254;1068;-60
2022/03/18 07:48:15;;;;;;;;;;;21.80;32.00;;;;;;466148;254;1089;-60
2022/03/18 07:50:20;;;;;;;;;;;21.60;32.00;;;;;;466068;254;1338;-59
2022/03/18 07:52:19;;;;;;;;;;;21.70;32.00;;;;;;465960;254;2397;-60
2022/03/18 07:54:21;;;;;;;;;;;21.60;32.20;;;;;;466031;254;1232;-59
2022/03/18 07:56:22;;;;;;;;;;;21.40;32.30;;;;;;466086;254;1176;-61
2022/03/18 07:58:23;;;;;;;;;;;21.60;32.10;;;;;;466022;254;2126;-60
2022/03/18 08:00:25;;;;;;;;;;;21.60;32.00;;;;;;465994;254;1095;-61
2022/03/18 08:02:26;;;;;;;;;;;21.60;31.90;;;;;;465951;254;1214;-60
2022/03/18 08:04:27;;;;;;;;;;;21.60;31.80;;;;;;466099;254;1091;-59
2022/03/18 08:06:28;;;;;;;;;;;21.60;31.80;;;;;;465851;254;1111;-60
2022/03/18 08:08:31;;;;;;;;;;;21.70;31.70;;;;;;465915;254;1241;-60
2022/03/18 08:10:32;;;;;;;;;;;21.70;31.70;;;;;;466013;254;1236;-60
2022/03/18 08:12:33;;;;;;;;;;;21.60;31.70;;;;;;466007;254;1183;-60
2022/03/18 08:14:34;;;;;;;;;;;21.60;31.70;;;;;;466122;254;1115;-61
2022/03/18 08:16:36;;;;;;;;;;;21.70;31.60;;;;;;465889;254;1159;-60
2022/03/18 08:18:37;;;;;;;;;;;21.70;31.70;;;;;;465991;254;2213;-60
2022/03/18 08:20:40;;;;;;;;;;;21.60;31.70;;;;;;466032;254;1206;-60
2022/03/18 08:22:41;;;;;;;;;;;21.50;32.10;;;;;;465923;254;2410;-61
2022/03/18 08:24:42;;;;;;;;;;;21.20;32.40;;;;;;466099;254;1172;-61
2022/03/18 08:26:43;;;;;;;;;;;21.40;31.90;;;;;;466064;254;1075;-60
2022/03/18 08:28:45;;;;;;;;;;;21.60;31.70;;;;;;466123;254;1101;-60
2022/03/18 08:30:46;;;;;;;;;;;21.60;31.70;;;;;;465998;254;1081;-60
2022/03/18 08:32:47;;;;;;;;;;;21.60;31.70;;;;;;466238;254;1097;-60
2022/03/18 08:34:49;;;;;;;;;;;21.70;31.50;;;;;;466009;254;1047;-61
2022/03/18 08:36:50;;;;;;;;;;;21.60;31.50;;;;;;465827;254;1277;-60
2022/03/18 08:38:51;;;;;;;;;;;21.60;31.40;;;;;;465845;254;2179;-60
2022/03/18 08:40:53;;;;;;;;;;;21.60;31.40;;;;;;465954;254;1210;-60
2022/03/18 08:42:54;;;;;;;;;;;21.60;31.40;;;;;;466063;254;1124;-60
2022/03/18 08:44:55;;;;;;;;;;;21.60;31.50;;;;;;465983;254;1091;-61
2022/03/18 08:46:57;;;;;;;;;;;21.60;31.50;;;;;;465939;254;1115;-60
2022/03/18 08:48:58;;;;;;;;;;;21.60;31.50;;;;;;466104;254;1163;-60
2022/03/18 08:51:00;;;;;;;;;;;21.70;31.40;;;;;;466103;254;1124;-60
2022/03/18 08:53:04;;;;;;;;;;;21.60;31.40;;;;;;466161;254;1141;-61
2022/03/18 08:55:02;;;;;;;;;;;21.70;31.30;;;;;;466279;254;1883;-79
2022/03/18 08:57:04;;;;;;;;;;;21.80;31.10;;;;;;466384;254;2216;-79
2022/03/18 08:59:06;;;;;;;;;;;21.70;31.20;;;;;;466353;254;1081;-80
2022/03/18 09:01:07;;;;;;;;;;;21.50;31.60;;;;;;466162;254;1296;-79
2022/03/18 09:03:08;;;;;;;;;;;21.60;31.70;;;;;;466214;254;1154;-79
2022/03/18 09:05:09;;;;;;;;;;;21.50;31.60;;;;;;466326;254;1083;-79
2022/03/18 09:07:11;;;;;;;;;;;21.40;31.70;;;;;;466139;254;1610;-79
2022/03/18 09:09:12;;;;;;;;;;;21.50;31.80;;;;;;466039;254;1095;-79
2022/03/18 09:11:13;;;;;;;;;;;21.50;31.70;;;;;;466054;254;1223;-79
2022/03/18 09:13:14;;;;;;;;;;;21.60;31.70;;;;;;466141;254;1127;-79
2022/03/18 09:15:16;;;;;;;;;;;21.70;31.50;;;;;;466141;254;1146;-79
2022/03/18 09:17:18;;;;;;;;;;;21.80;31.40;;;;;;466165;254;2201;-79
2022/03/18 09:19:18;;;;;;;;;;;21.70;31.40;;;;;;466283;254;1442;-79
2022/03/18 09:21:20;;;;;;;;;;;21.60;31.60;;;;;;466300;254;1106;-79
2022/03/18 09:23:21;;;;;;;;;;;21.60;31.60;;;;;;466343;254;1074;-79
2022/03/18 09:25:22;;;;;;;;;;;21.60;31.50;;;;;;466346;254;1231;-79
2022/03/18 09:27:24;;;;;;;;;;;21.70;31.50;;;;;;466392;254;1084;-79
2022/03/18 09:29:26;;;;;;;;;;;21.70;31.40;;;;;;466311;254;1021;-79
2022/03/18 09:31:27;;;;;;;;;;;21.70;31.40;;;;;;466058;254;1168;-79
2022/03/18 09:33:28;;;;;;;;;;;21.70;31.60;;;;;;466159;254;1049;-79
2022/03/18 09:35:29;;;;;;;;;;;21.70;31.70;;;;;;466126;254;1141;-79
2022/03/18 09:37:31;;;;;;;;;;;21.70;31.50;;;;;;466142;254;2201;-79
2022/03/18 09:39:32;;;;;;;;;;;21.80;31.40;;;;;;466152;254;1159;-79
2022/03/18 09:41:33;;;;;;;;;;;21.80;31.40;;;;;;466078;254;1208;-79
2022/03/18 09:43:35;;;;;;;;;;;21.70;31.50;;;;;;466120;254;1076;-79
2022/03/18 09:45:37;;;;;;;;;;;21.70;31.50;;;;;;466103;254;1382;-79
2022/03/18 09:47:38;;;;;;;;;;;21.70;31.40;;;;;;466192;254;1080;-79
2022/03/18 09:49:39;;;;;;;;;;;21.70;31.50;;;;;;466336;254;993;-79
2022/03/18 09:51:41;;;;;;;;;;;21.70;31.50;;;;;;466219;254;1067;-79
2022/03/18 09:53:42;;;;;;;;;;;21.60;31.60;;;;;;466196;254;1100;-78
2022/03/18 09:55:44;;;;;;;;;;;21.70;31.40;;;;;;466073;254;1160;-79
2022/03/18 09:57:45;;;;;;;;;;;21.80;31.40;;;;;;466112;254;2196;-79
2022/03/18 09:59:47;;;;;;;;;;;21.70;31.40;;;;;;466253;254;1164;-79
2022/03/18 10:01:48;;;;;;;;;;;21.70;31.40;;;;;;466192;254;1299;-79
2022/03/18 10:03:50;;;;;;;;;;;21.70;31.30;;;;;;466208;254;1215;-79
2022/03/18 10:05:50;;;;;;;;;;;21.70;31.30;;;;;;466264;254;1441;-79
2022/03/18 10:07:51;;;;;;;;;;;21.70;31.40;;;;;;466256;254;1134;-79
2022/03/18 10:09:53;;;;;;;;;;;21.70;31.40;;;;;;466282;254;988;-79
2022/03/18 10:11:54;;;;;;;;;;;21.70;31.40;;;;;;466250;254;1124;-79
2022/03/18 10:13:56;;;;;;;;;;;21.70;31.20;;;;;;466224;254;1060;-79
2022/03/18 10:15:58;;;;;;;;;;;21.70;31.20;;;;;;465882;254;1410;-79
2022/03/18 10:17:58;;;;;;;;;;;21.70;31.20;;;;;;466056;254;2216;-79
2022/03/18 10:19:59;;;;;;;;;;;21.60;31.20;;;;;;466075;254;1128;-79
2022/03/18 10:22:01;;;;;;;;;;;21.60;31.30;;;;;;466085;254;1080;-79
2022/03/18 10:24:02;;;;;;;;;;;21.60;31.20;;;;;;466038;254;1348;-79
2022/03/18 10:26:03;;;;;;;;;;;21.60;31.20;;;;;;465957;254;1206;-79
2022/03/18 10:28:05;;;;;;;;;;;21.50;31.40;;;;;;466061;254;1138;-79
2022/03/18 10:30:08;;;;;;;;;;;21.60;31.30;;;;;;466182;254;1120;-79
2022/03/18 10:32:08;;;;;;;;;;;21.60;31.00;;;;;;466218;254;1264;-79
2022/03/18 10:38:48;;;;;;;;;;;21.70;31.00;;;;;;466252;256;2141;-79
2022/03/18 10:40:52;;;;;;;;;;;21.60;30.90;;;;;;466129;254;1418;-79
2022/03/18 10:42:50;;;;;;;;;;;21.60;30.90;;;;;;466190;254;1333;-79
2022/03/18 10:44:52;;;;;;;;;;;21.60;30.80;;;;;;466255;254;1003;-79
2022/03/18 10:46:57;;;;;;;;;;;21.60;30.70;;;;;;466188;254;1123;-79
2022/03/18 10:48:54;;;;;;;;;;;21.60;30.70;;;;;;466352;254;1567;-79
2022/03/18 10:50:56;;;;;;;;;;;21.60;30.70;;;;;;466109;254;1385;-79
2022/03/18 10:52:58;;;;;;;;;;;21.60;30.60;;;;;;466098;254;1078;-79
2022/03/18 10:54:59;;;;;;;;;;;21.60;30.60;;;;;;466206;254;1582;-79
2022/03/18 10:57:00;;;;;;;;;;;21.60;30.60;;;;;;466223;254;1230;-79
2022/03/18 10:59:02;;;;;;;;;;;21.60;30.50;;;;;;466271;254;2204;-79
2022/03/18 11:01:03;;;;;;;;;;;21.60;30.60;;;;;;466248;254;1400;-79
2022/03/18 11:03:04;;;;;;;;;;;21.50;30.50;;;;;;466283;254;1101;-79
2022/03/18 11:05:06;;;;;;;;;;;21.50;30.60;;;;;;466174;254;1154;-79
2022/03/18 11:11:06;;;;;;;;;;;21.40;30.60;;;;;;466338;255;1149;-79
2022/03/18 11:11:28;;;;;;;;;;;21.40;30.80;;;;;;465565;254;1278;-79
2022/03/18 11:13:29;;;;;;;;;;;21.50;30.50;;;;;;466161;254;1074;-79
2022/03/18 11:15:30;;;;;;;;;;;21.40;30.50;;;;;;466080;254;1088;-79
2022/03/18 11:17:32;;;;;;;;;;;21.40;30.50;;;;;;466048;254;1084;-79
2022/03/18 11:19:34;;;;;;;;;;;21.40;30.60;;;;;;466071;254;2135;-79
2022/03/18 11:21:38;;;;;;;;;;;21.40;30.50;;;;;;466158;254;1393;-79
2022/03/18 11:23:39;;;;;;;;;;;21.40;30.50;;;;;;466216;254;1441;-79
2022/03/18 11:25:41;;;;;;;;;;;21.50;30.40;;;;;;466369;254;1063;-79
2022/03/18 11:27:44;;;;;;;;;;;21.40;30.40;;;;;;466397;254;1195;-79
2022/03/18 11:29:43;;;;;;;;;;;21.50;30.20;;;;;;466297;254;1946;-79
2022/03/18 11:31:45;;;;;;;;;;;21.40;30.10;;;;;;466233;254;1077;-79
2022/03/18 11:33:46;;;;;;;;;;;21.50;30.10;;;;;;466293;254;1144;-79
2022/03/18 11:35:47;;;;;;;;;;;21.30;30.10;;;;;;466295;254;1237;-79
2022/03/18 11:37:49;;;;;;;;;;;21.40;30.00;;;;;;466335;254;1101;-79
2022/03/18 11:39:50;;;;;;;;;;;21.40;30.00;;;;;;466285;254;2193;-79
2022/03/18 11:41:51;;;;;;;;;;;21.40;30.00;;;;;;466199;254;1166;-79
2022/03/18 11:43:53;;;;;;;;;;;21.40;30.00;;;;;;466222;254;1062;-79
2022/03/18 11:45:54;;;;;;;;;;;21.40;30.00;;;;;;466263;254;1077;-79
2022/03/18 11:47:55;;;;;;;;;;;21.40;29.90;;;;;;466143;254;1067;-79
2022/03/18 11:49:57;;;;;;;;;;;21.40;29.90;;;;;;466154;254;1067;-79
2022/03/18 11:51:58;;;;;;;;;;;21.40;29.90;;;;;;466229;254;1253;-79
2022/03/18 11:54:00;;;;;;;;;;;21.40;29.80;;;;;;466219;254;1288;-79
2022/03/18 11:56:01;;;;;;;;;;;21.40;29.80;;;;;;466342;254;1345;-79
2022/03/18 11:58:02;;;;;;;;;;;21.50;29.70;;;;;;466261;254;1217;-79
2022/03/18 12:00:05;;;;;;;;;;;21.50;29.70;;;;;;466127;254;2185;-79
2022/03/18 12:02:05;;;;;;;;;;;21.50;29.60;;;;;;466139;254;1407;-79
2022/03/18 12:04:06;;;;;;;;;;;21.50;29.60;;;;;;466212;254;1055;-79
2022/03/18 12:06:08;;;;;;;;;;;21.40;29.60;;;;;;466131;254;1122;-79
2022/03/18 12:08:09;;;;;;;;;;;21.40;29.50;;;;;;466250;254;1034;-79
2022/03/18 12:10:10;;;;;;;;;;;21.30;29.60;;;;;;466283;254;1088;-79
2022/03/18 12:12:12;;;;;;;;;;;21.40;29.60;;;;;;466230;254;1519;-79
2022/03/18 12:14:13;;;;;;;;;;;21.40;29.60;;;;;;466291;254;996;-79
2022/03/18 12:16:14;;;;;;;;;;;21.20;29.70;;;;;;466199;254;1098;-79
2022/03/18 12:18:16;;;;;;;;;;;21.20;29.70;;;;;;466235;254;2197;-79